Friendship, Mississippi
Current Conditions -  °F | °C
As of 10:15 AM on Wednesday 28 Jan 2015 (Local Time) from K1R7 Reporting Station
Clear Clear  
Wind Chill: 54°   Ceiling: Unl
Heat Index: 54°   Visibility: NA
Dew Point: 36°   Wind: 3mph
Humidity: 51%   Direction: 100°E
Pressure: 30.31"   Gusts: NA
Location:  31.5898°N, 90.4722°W
Report Text: K1R7 281615Z AUTO 10003KT CLR 12/02 A3031 RMK AO2
Loading
Personal Weather Stations






























Interactive Weather Map New forecast layout! Learn more

10-Day Weather Forecast

Advertisements
Track Severe Weather on mobile